Time;durP1;ratioP1;P1;durP2;ratioP2;P2;SDS_P1;SDS_P2;PMS_P1;PMS_P2;Temp;Humidity;BMP_temperature;BMP_pressure;BME280_temperature;BME280_humidity;BME280_pressure;Samples;Min_cycle;Max_cycle;Signal;HPM_P1;HPM_P2
2021/05/12 00:02:13;;;;;;;1.80;1.20;;;;;;;15.20;100.00;99954.25;5053200;28;20834;-69
2021/05/12 00:04:40;;;;;;;2.10;1.90;;;;;;;15.20;100.00;99972.56;5053235;28;20838;-70
2021/05/12 00:07:06;;;;;;;3.47;2.00;;;;;;;15.16;100.00;99975.19;5053174;28;20443;-69
2021/05/12 00:09:32;;;;;;;1.73;1.50;;;;;;;15.11;100.00;99975.44;5052874;28;20442;-69
2021/05/12 00:11:58;;;;;;;4.47;1.60;;;;;;;15.03;100.00;99976.38;5053042;28;20458;-70
2021/05/12 00:14:25;;;;;;;3.53;1.83;;;;;;;15.03;100.00;99970.91;5052775;28;20438;-70
2021/05/12 00:16:51;;;;;;;2.23;1.60;;;;;;;15.01;100.00;99984.09;5052836;28;20457;-70
2021/05/12 00:19:19;;;;;;;3.27;1.87;;;;;;;14.99;100.00;100000.81;5053112;28;20477;-70
2021/05/12 00:21:48;;;;;;;3.33;2.03;;;;;;;15.00;100.00;100002.38;5052644;28;20477;-69
2021/05/12 00:24:14;;;;;;;5.20;2.30;;;;;;;15.02;100.00;100015.69;5053040;28;20449;-70
2021/05/12 00:26:41;;;;;;;3.80;2.60;;;;;;;15.02;100.00;100019.22;5052956;28;20451;-70
2021/05/12 00:29:09;;;;;;;4.00;1.90;;;;;;;14.95;100.00;100004.56;5052636;28;21019;-70
2021/05/12 00:31:36;;;;;;;2.60;2.10;;;;;;;14.87;100.00;100000.81;5052807;28;20515;-70
2021/05/12 00:34:02;;;;;;;4.27;2.40;;;;;;;14.77;100.00;99991.19;5052879;28;20478;-70
2021/05/12 00:36:29;;;;;;;4.67;2.90;;;;;;;14.75;100.00;99989.97;5052848;28;20442;-70
2021/05/12 00:38:57;;;;;;;2.60;1.83;;;;;;;14.69;100.00;100015.84;5052527;28;20963;-69
2021/05/12 00:41:23;;;;;;;3.97;1.80;;;;;;;14.64;100.00;100014.16;5052790;28;20471;-70
2021/05/12 00:43:49;;;;;;;2.50;1.57;;;;;;;14.64;100.00;100001.31;5052835;28;20430;-70
2021/05/12 00:46:15;;;;;;;3.50;1.70;;;;;;;14.59;100.00;100009.72;5052541;28;20975;-70
2021/05/12 00:48:41;;;;;;;2.50;1.90;;;;;;;14.57;100.00;100014.75;5052782;28;20457;-70
2021/05/12 00:51:08;;;;;;;5.50;2.23;;;;;;;14.56;100.00;100020.50;5052406;28;20482;-70
2021/05/12 00:53:34;;;;;;;3.10;1.43;;;;;;;14.56;100.00;100023.25;5052619;28;20482;-70
2021/05/12 00:56:03;;;;;;;3.07;1.47;;;;;;;14.62;100.00;100022.69;5052708;28;20430;-70
2021/05/12 00:58:29;;;;;;;4.00;2.13;;;;;;;14.59;100.00;100011.66;5052647;28;20475;-70
2021/05/12 01:00:55;;;;;;;2.47;1.77;;;;;;;14.56;100.00;100006.88;5052621;28;20917;-70
2021/05/12 01:03:21;;;;;;;3.07;1.90;;;;;;;14.56;100.00;100034.94;5052345;28;20811;-70
2021/05/12 01:06:02;;;;;;;3.93;1.80;;;;;;;14.58;100.00;100043.59;5052311;28;20450;-70
2021/05/12 01:08:28;;;;;;;4.80;2.70;;;;;;;14.55;100.00;100035.28;5052578;28;20468;-70
2021/05/12 01:10:55;;;;;;;2.53;1.83;;;;;;;14.56;100.00;100043.09;5052509;28;20464;-70
2021/05/12 01:13:22;;;;;;;2.30;1.50;;;;;;;14.54;100.00;100058.22;5052512;28;20482;-70
2021/05/12 01:15:48;;;;;;;4.87;2.30;;;;;;;14.49;100.00;100067.44;5052243;28;20503;-69
2021/05/12 01:18:15;;;;;;;1.57;1.10;;;;;;;14.54;100.00;100060.97;5052515;28;20442;-70
2021/05/12 01:20:50;;;;;;;4.03;2.17;;;;;;;14.53;100.00;100065.63;5052404;28;20462;-69
2021/05/12 01:23:18;;;;;;;2.37;1.53;;;;;;;14.54;100.00;100072.66;5052465;28;20442;-70
2021/05/12 01:25:45;;;;;;;5.30;2.00;;;;;;;14.51;100.00;100067.06;5052428;28;20442;-70
2021/05/12 01:28:11;;;;;;;1.57;1.00;;;;;;;14.50;100.00;100065.50;5052458;28;20446;-69
2021/05/12 01:30:37;;;;;;;3.30;1.80;;;;;;;14.50;100.00;100066.28;5052316;28;20807;-70
2021/05/12 01:33:03;;;;;;;2.30;1.33;;;;;;;14.52;100.00;100074.94;5052304;28;20577;-69
2021/05/12 01:35:29;;;;;;;2.97;1.63;;;;;;;14.55;100.00;100068.78;5054952;28;20450;-70
2021/05/12 01:37:56;;;;;;;2.40;1.97;;;;;;;14.53;100.00;100064.81;5055913;28;20933;-70
2021/05/12 01:40:22;;;;;;;2.83;1.40;;;;;;;14.48;100.00;100062.28;5055750;28;20527;-69
2021/05/12 01:42:48;;;;;;;2.13;1.97;;;;;;;14.44;100.00;100072.28;5055829;28;20445;-70
2021/05/12 01:45:15;;;;;;;3.87;2.13;;;;;;;14.39;100.00;100060.47;5070436;28;20461;-69
2021/05/12 01:47:41;;;;;;;4.20;2.13;;;;;;;14.37;100.00;100070.91;5075686;28;20502;-69
2021/05/12 01:50:09;;;;;;;3.90;2.70;;;;;;;14.36;100.00;100082.94;5075507;28;20441;-70
2021/05/12 01:52:40;;;;;;;1.73;1.40;;;;;;;14.39;100.00;100084.19;5075297;28;20472;-70
2021/05/12 01:55:09;;;;;;;2.93;1.70;;;;;;;14.35;100.00;100086.81;5075649;28;20498;-69
2021/05/12 01:57:35;;;;;;;2.47;1.70;;;;;;;14.34;100.00;100078.94;5075562;28;20429;-69
2021/05/12 02:00:03;;;;;;;4.80;2.20;;;;;;;14.32;100.00;100078.50;5075528;28;20437;-69
2021/05/12 02:02:29;;;;;;;2.60;2.37;;;;;;;14.29;100.00;100081.91;5075468;28;20445;-69
2021/05/12 02:04:55;;;;;;;4.43;2.47;;;;;;;14.27;100.00;100084.97;5075453;28;20446;-70
2021/05/12 02:07:21;;;;;;;2.83;1.63;;;;;;;14.24;100.00;100080.19;5075344;28;20444;-69
2021/05/12 02:09:52;;;;;;;0.90;0.77;;;;;;;14.19;100.00;100072.25;5075364;28;20445;-70
2021/05/12 02:12:19;;;;;;;4.00;1.90;;;;;;;14.14;100.00;100075.19;5075288;28;20506;-69
2021/05/12 02:14:45;;;;;;;2.23;1.37;;;;;;;14.10;100.00;100075.06;5075275;28;20491;-69
2021/05/12 02:17:11;;;;;;;0.97;0.80;;;;;;;14.07;100.00;100070.28;5075192;28;20445;-69
2021/05/12 02:19:36;;;;;;;2.40;1.63;;;;;;;14.01;100.00;100076.28;5075233;28;20449;-70
2021/05/12 02:22:03;;;;;;;1.00;0.73;;;;;;;13.94;100.00;100076.81;5075096;28;20465;-69
2021/05/12 02:24:29;;;;;;;3.40;1.50;;;;;;;13.95;100.00;100077.63;5075038;28;20452;-70
2021/05/12 02:26:54;;;;;;;2.53;1.70;;;;;;;13.97;100.00;100064.47;5075012;28;20440;-70
2021/05/12 02:29:21;;;;;;;1.73;1.63;;;;;;;13.99;100.00;100062.19;5074958;28;20499;-69
2021/05/12 02:31:47;;;;;;;1.67;1.23;;;;;;;14.00;100.00;100064.59;5074849;28;20464;-70
2021/05/12 02:34:13;;;;;;;0.90;0.60;;;;;;;14.01;100.00;100059.94;5074811;28;20477;-70
2021/05/12 02:36:39;;;;;;;2.30;1.30;;;;;;;13.92;100.00;100068.19;5074486;28;20895;-70
2021/05/12 02:39:06;;;;;;;4.00;1.60;;;;;;;13.96;100.00;100077.28;5074767;28;20445;-70
2021/05/12 02:41:32;;;;;;;2.00;1.50;;;;;;;13.99;100.00;100078.53;5074625;28;20511;-70
2021/05/12 02:43:58;;;;;;;3.37;1.57;;;;;;;14.02;100.00;100083.31;5074687;28;20441;-70
2021/05/12 02:46:25;;;;;;;1.00;0.93;;;;;;;14.02;100.00;100075.94;5074500;28;20445;-69
2021/05/12 02:48:51;;;;;;;3.23;1.50;;;;;;;14.05;100.00;100077.19;5074573;28;20445;-70
2021/05/12 02:51:16;;;;;;;0.90;0.70;;;;;;;14.04;100.00;100076.41;5074060;28;20531;-70
2021/05/12 02:53:42;;;;;;;1.53;1.43;;;;;;;14.04;100.00;100091.97;5074404;28;20485;-70
2021/05/12 02:56:08;;;;;;;1.97;1.00;;;;;;;14.08;100.00;100096.41;5074417;28;20445;-70
2021/05/12 02:58:34;;;;;;;1.13;1.00;;;;;;;14.12;100.00;100097.31;5074018;28;20789;-70
2021/05/12 03:01:00;;;;;;;1.17;0.90;;;;;;;14.12;100.00;100091.88;5073989;28;20492;-70
2021/05/12 03:03:27;;;;;;;1.17;0.97;;;;;;;14.11;100.00;100086.75;5073943;28;20491;-70
2021/05/12 03:05:53;;;;;;;8.63;1.60;;;;;;;14.12;100.00;100091.03;5074230;28;20461;-70
2021/05/12 03:08:19;;;;;;;1.93;1.17;;;;;;;14.14;100.00;100100.47;5074181;28;20939;-70
2021/05/12 03:10:46;;;;;;;2.43;1.33;;;;;;;14.15;100.00;100112.16;5074064;28;20833;-70
2021/05/12 03:13:13;;;;;;;4.23;1.83;;;;;;;14.11;100.00;100108.53;5073755;28;20473;-70
2021/05/12 03:15:40;;;;;;;2.27;1.50;;;;;;;14.08;100.00;100106.50;5074015;28;20438;-70
2021/05/12 03:18:07;;;;;;;1.30;1.00;;;;;;;14.07;100.00;100102.94;5073937;28;20438;-70
2021/05/12 03:20:34;;;;;;;1.83;1.40;;;;;;;14.01;100.00;100106.25;5073858;28;20465;-70
2021/05/12 03:23:01;;;;;;;3.33;1.77;;;;;;;13.96;100.00;100096.34;5073893;28;20499;-70
2021/05/12 03:25:28;;;;;;;1.53;1.07;;;;;;;13.95;100.00;100093.97;5073817;28;20444;-70
2021/05/12 03:27:54;;;;;;;1.50;1.20;;;;;;;14.00;100.00;100085.59;5073798;28;20441;-70
2021/05/12 03:30:23;;;;;;;0.97;0.83;;;;;;;14.03;100.00;100096.63;5073712;28;20465;-70
2021/05/12 03:32:49;;;;;;;2.77;1.10;;;;;;;14.05;100.00;100091.63;5073753;28;20481;-70
2021/05/12 03:35:16;;;;;;;1.30;1.00;;;;;;;14.07;100.00;100097.50;5073677;28;20437;-70
2021/05/12 03:37:42;;;;;;;0.97;0.83;;;;;;;14.07;100.00;100097.50;5073621;28;20455;-70
2021/05/12 03:40:09;;;;;;;1.73;1.33;;;;;;;14.06;100.00;100103.31;5073263;28;20947;-70
2021/05/12 03:42:35;;;;;;;1.60;1.33;;;;;;;14.05;100.00;100105.22;5073553;28;20437;-69
2021/05/12 03:45:01;;;;;;;2.13;1.30;;;;;;;14.07;100.00;100104.88;5073567;28;20445;-70
2021/05/12 03:47:27;;;;;;;1.33;1.00;;;;;;;14.05;100.00;100112.59;5073533;28;20877;-69
2021/05/12 03:49:53;;;;;;;2.00;1.30;;;;;;;14.03;100.00;100109.41;5073315;28;20445;-69
2021/05/12 03:52:19;;;;;;;2.13;1.20;;;;;;;14.02;100.00;100113.28;5073054;28;20532;-69
2021/05/12 03:54:49;;;;;;;2.70;1.53;;;;;;;14.05;100.00;100109.88;5073489;28;20445;-68
2021/05/12 03:57:15;;;;;;;1.47;0.80;;;;;;;13.97;100.00;100108.03;5072773;28;20453;-70
2021/05/12 03:59:41;;;;;;;1.57;0.97;;;;;;;13.98;100.00;100117.78;5073039;28;20448;-70
2021/05/12 04:02:07;;;;;;;1.90;1.27;;;;;;;14.05;100.00;100113.41;5073242;28;20457;-70
2021/05/12 04:04:33;;;;;;;2.23;1.33;;;;;;;14.04;100.00;100120.00;5073020;28;20445;-70
2021/05/12 04:06:59;;;;;;;1.47;1.27;;;;;;;14.08;100.00;100120.91;5073251;28;20484;-70
2021/05/12 04:09:25;;;;;;;0.70;0.67;;;;;;;14.07;100.00;100126.66;5073261;28;20445;-70
2021/05/12 04:11:52;;;;;;;2.17;0.87;;;;;;;14.03;100.00;100137.47;5073160;28;20479;-70
2021/05/12 04:14:18;;;;;;;3.43;1.17;;;;;;;13.93;100.00;100129.69;5072778;28;21030;-70
2021/05/12 04:16:45;;;;;;;1.20;1.00;;;;;;;13.96;100.00;100117.34;5073125;28;20453;-70
2021/05/12 04:19:11;;;;;;;4.03;1.20;;;;;;;13.97;100.00;100114.28;5073111;28;20441;-70
2021/05/12 04:21:37;;;;;;;1.33;0.60;;;;;;;13.98;100.00;100104.97;5073050;28;20469;-70
2021/05/12 04:24:04;;;;;;;1.20;0.90;;;;;;;13.98;100.00;100104.19;5072762;28;20440;-69
2021/05/12 04:26:30;;;;;;;1.13;1.03;;;;;;;13.98;100.00;100112.34;5073075;28;20440;-69
2021/05/12 04:28:57;;;;;;;1.10;0.80;;;;;;;13.99;100.00;100108.47;5072998;28;20449;-70
2021/05/12 04:31:23;;;;;;;1.17;1.03;;;;;;;13.98;100.00;100118.59;5072595;28;20469;-69
2021/05/12 04:33:49;;;;;;;1.13;1.00;;;;;;;13.88;100.00;100117.06;5072807;28;20525;-69
2021/05/12 04:36:15;;;;;;;1.93;1.37;;;;;;;13.96;100.00;100117.34;5072649;28;20452;-70
2021/05/12 04:38:41;;;;;;;1.40;1.30;;;;;;;13.95;100.00;100123.94;5072611;28;20441;-70
2021/05/12 04:41:07;;;;;;;1.90;1.20;;;;;;;13.99;100.00;100135.72;5072784;28;20510;-70
2021/05/12 04:43:33;;;;;;;1.33;0.87;;;;;;;14.04;100.00;100138.25;5072875;28;20433;-70
2021/05/12 04:46:00;;;;;;;0.93;0.83;;;;;;;14.12;100.00;100143.63;5072871;28;20824;-70
2021/05/12 04:48:26;;;;;;;2.10;1.43;;;;;;;14.15;100.00;100158.47;5072513;28;20796;-70
2021/05/12 04:50:52;;;;;;;1.27;1.00;;;;;;;14.22;100.00;100164.19;5072314;28;20476;-70
2021/05/12 04:53:17;;;;;;;1.87;1.13;;;;;;;14.25;99.63;100163.50;5072649;28;20507;-70
2021/05/12 04:55:43;;;;;;;4.53;1.07;;;;;;;14.27;98.98;100177.59;5072693;28;20851;-70
2021/05/12 04:58:09;;;;;;;1.90;1.20;;;;;;;14.24;98.49;100183.72;5072720;28;20819;-70
2021/05/12 05:00:35;;;;;;;1.13;0.87;;;;;;;14.22;97.42;100193.38;5072313;28;20457;-70
2021/05/12 05:03:03;;;;;;;1.20;0.93;;;;;;;14.19;97.78;100197.53;5072599;28;20433;-69
2021/05/12 05:05:29;;;;;;;1.87;1.20;;;;;;;14.14;98.20;100193.09;5072678;28;20442;-70
2021/05/12 05:07:55;;;;;;;1.33;0.83;;;;;;;14.14;98.20;100195.81;5072694;28;20437;-70
2021/05/12 05:10:21;;;;;;;1.87;1.40;;;;;;;14.10;97.86;100205.00;5075131;28;20461;-70
2021/05/12 05:12:47;;;;;;;3.33;1.53;;;;;;;14.03;98.05;100199.28;5076340;28;20500;-70
2021/05/12 05:15:14;;;;;;;2.73;1.33;;;;;;;14.02;97.73;100192.25;5076353;28;20524;-70
2021/05/12 05:17:41;;;;;;;1.77;1.20;;;;;;;14.03;98.24;100189.22;5076307;28;20481;-70
2021/05/12 05:20:10;;;;;;;1.73;1.03;;;;;;;14.08;98.17;100196.38;5076172;28;20873;-69
2021/05/12 05:22:36;;;;;;;3.43;1.37;;;;;;;14.16;97.95;100195.47;5076160;28;20449;-68
2021/05/12 05:25:04;;;;;;;2.17;1.20;;;;;;;14.19;97.83;100194.81;5076128;28;20495;-69
2021/05/12 05:27:30;;;;;;;1.27;1.13;;;;;;;14.10;97.15;100194.91;5076225;28;20453;-69
2021/05/12 05:29:56;;;;;;;1.10;0.73;;;;;;;14.16;97.96;100197.41;5076033;28;20833;-70
2021/05/12 05:32:22;;;;;;;1.83;0.83;;;;;;;14.31;97.59;100189.41;5076050;28;20464;-69
2021/05/12 05:34:48;;;;;;;1.83;1.17;;;;;;;14.35;95.94;100195.78;5076173;28;20437;-69
2021/05/12 05:37:16;;;;;;;7.00;2.17;;;;;;;14.40;96.50;100202.97;5075992;28;20499;-69
2021/05/12 05:39:41;;;;;;;4.87;1.80;;;;;;;14.35;96.07;100203.97;5076035;28;20441;-69
2021/05/12 05:42:09;;;;;;;1.20;0.73;;;;;;;14.43;95.67;100212.38;5075528;28;20887;-69
2021/05/12 05:44:35;;;;;;;3.63;2.13;;;;;;;14.41;94.98;100215.44;5075967;28;20445;-69
2021/05/12 05:47:02;;;;;;;2.03;1.60;;;;;;;14.37;95.03;100214.53;5075756;28;20487;-69
2021/05/12 05:49:29;;;;;;;2.57;1.30;;;;;;;14.23;95.46;100214.81;5075841;28;20792;-69
2021/05/12 05:51:55;;;;;;;2.17;1.40;;;;;;;14.23;96.48;100214.81;5076537;28;20534;-69
2021/05/12 05:54:23;;;;;;;1.33;1.10;;;;;;;14.28;96.75;100217.31;5074256;28;20492;-70
2021/05/12 05:56:49;;;;;;;2.13;1.73;;;;;;;14.31;96.83;100227.56;5063954;28;20976;-70
2021/05/12 05:59:15;;;;;;;2.03;1.23;;;;;;;14.24;96.98;100216.41;5055581;28;20473;-69
2021/05/12 06:01:41;;;;;;;2.47;1.97;;;;;;;14.27;96.91;100223.91;5056728;28;20822;-70
2021/05/12 06:04:07;;;;;;;4.27;1.47;;;;;;;14.27;97.33;100215.72;5071272;28;20967;-69
2021/05/12 06:06:33;;;;;;;4.00;1.87;;;;;;;14.32;97.47;100220.19;5069197;28;20468;-71
2021/05/12 06:08:59;;;;;;;4.07;1.53;;;;;;;14.35;97.62;100227.69;5058924;28;20446;-70
2021/05/12 06:11:26;;;;;;;2.33;1.57;;;;;;;14.39;96.32;100220.44;5075315;28;20456;-68
2021/05/12 06:13:52;;;;;;;2.60;2.10;;;;;;;14.33;96.04;100208.94;5072915;28;20848;-70
2021/05/12 06:16:19;;;;;;;2.50;1.67;;;;;;;14.51;96.15;100195.16;5055238;28;20488;-70
2021/05/12 06:18:45;;;;;;;4.33;2.03;;;;;;;14.61;95.03;100205.66;5064605;28;20522;-70
2021/05/12 06:21:11;;;;;;;2.63;1.30;;;;;;;14.64;94.70;100210.41;5071458;28;20468;-70
2021/05/12 06:23:37;;;;;;;2.47;1.63;;;;;;;14.67;94.57;100212.47;5055094;28;20805;-69
2021/05/12 06:26:05;;;;;;;2.50;1.73;;;;;;;14.63;94.27;100220.53;5055035;28;20442;-69
2021/05/12 06:28:32;;;;;;;3.00;1.70;;;;;;;14.63;94.69;100220.53;5074486;28;20453;-68
2021/05/12 06:31:12;;;;;;;3.50;1.67;;;;;;;14.64;93.84;100224.06;5057675;28;20993;-69
2021/05/12 06:33:42;;;;;;;1.50;1.23;;;;;;;14.50;93.24;100227.09;5054804;28;20565;-69
2021/05/12 06:36:10;;;;;;;3.90;1.50;;;;;;;14.46;93.11;100230.78;5073844;28;20548;-68
2021/05/12 06:38:36;;;;;;;1.63;1.10;;;;;;;14.39;93.71;100226.69;5073064;28;20537;-68
2021/05/12 06:41:02;;;;;;;2.87;1.57;;;;;;;14.36;93.82;100230.06;5075005;28;20472;-68
2021/05/12 06:43:29;;;;;;;3.23;1.80;;;;;;;14.48;94.29;100223.09;5065039;28;20445;-68
2021/05/12 06:45:56;;;;;;;5.53;1.73;;;;;;;14.62;93.66;100231.78;5054658;28;20450;-68
2021/05/12 06:48:22;;;;;;;7.53;1.60;;;;;;;14.70;92.25;100227.34;5061807;28;20510;-68
2021/05/12 06:50:48;;;;;;;3.30;1.80;;;;;;;14.73;92.26;100232.94;5074217;28;20524;-68
2021/05/12 06:53:14;;;;;;;3.47;1.43;;;;;;;14.75;91.97;100232.63;5068422;28;20485;-68
2021/05/12 06:55:40;;;;;;;4.73;1.80;;;;;;;14.84;92.51;100233.31;5054432;28;20438;-68
2021/05/12 06:58:07;;;;;;;10.40;4.03;;;;;;;14.98;91.77;100241.97;5069667;28;20433;-68
2021/05/12 07:00:33;;;;;;;5.13;3.10;;;;;;;15.14;90.94;100242.09;5067179;28;20515;-69
2021/05/12 07:03:00;;;;;;;4.33;2.17;;;;;;;15.27;89.85;100234.69;5058735;28;20819;-68
2021/05/12 07:05:26;;;;;;;4.60;2.00;;;;;;;15.34;89.36;100249.38;5054222;28;20472;-68
2021/05/12 07:07:53;;;;;;;3.50;1.60;;;;;;;15.33;89.21;100238.81;5059769;28;20981;-68
2021/05/12 07:10:20;;;;;;;4.57;2.20;;;;;;;15.24;89.36;100236.19;5054126;28;20497;-67
2021/05/12 07:12:46;;;;;;;3.83;2.10;;;;;;;15.22;89.98;100237.66;5063606;28;20486;-67
2021/05/12 07:15:14;;;;;;;2.40;1.57;;;;;;;15.23;90.38;100250.97;5073363;28;20442;-69
2021/05/12 07:17:40;;;;;;;5.37;1.80;;;;;;;15.22;90.52;100241.19;5073270;28;20441;-68
2021/05/12 07:20:09;;;;;;;4.87;2.00;;;;;;;15.22;90.64;100243.13;5073521;28;20453;-69
2021/05/12 07:22:35;;;;;;;4.07;2.10;;;;;;;15.08;90.43;100236.06;5073946;28;20441;-68
2021/05/12 07:25:01;;;;;;;7.23;2.53;;;;;;;15.03;90.79;100240.94;5067785;28;20800;-69
2021/05/12 07:27:28;;;;;;;6.10;2.77;;;;;;;14.94;91.79;100240.25;5061503;28;20451;-71
2021/05/12 07:29:54;;;;;;;3.30;2.20;;;;;;;14.84;92.50;100245.00;5065716;28;20503;-69
2021/05/12 07:32:20;;;;;;;5.20;1.80;;;;;;;14.92;92.29;100256.97;5071642;28;20441;-68
2021/05/12 07:34:50;;;;;;;4.37;2.07;;;;;;;14.94;90.97;100264.81;5073273;28;20489;-68
2021/05/12 07:37:18;;;;;;;4.23;2.50;;;;;;;14.91;91.09;100266.25;5054347;28;20489;-68
2021/05/12 07:39:44;;;;;;;3.87;2.23;;;;;;;14.74;91.95;100275.44;5053301;28;20899;-68
2021/05/12 07:42:12;;;;;;;4.93;2.30;;;;;;;14.81;92.09;100267.50;5070837;28;20465;-69
2021/05/12 07:44:38;;;;;;;5.60;2.10;;;;;;;14.80;92.59;100268.63;5073534;28;20503;-69
2021/05/12 07:47:04;;;;;;;5.20;3.43;;;;;;;14.78;92.81;100270.09;5073074;28;20451;-68
2021/05/12 07:49:30;;;;;;;6.00;2.80;;;;;;;14.87;92.86;100263.44;5073412;28;20456;-71
2021/05/12 07:51:56;;;;;;;4.23;2.50;;;;;;;15.04;92.20;100265.16;5073033;28;21007;-70
2021/05/12 07:54:23;;;;;;;6.10;2.90;;;;;;;15.07;91.42;100253.56;5073058;28;21003;-70
2021/05/12 07:56:49;;;;;;;6.90;3.23;;;;;;;15.09;91.76;100251.28;5073054;28;20998;-69
2021/05/12 07:59:16;;;;;;;4.63;2.70;;;;;;;15.19;91.58;100255.53;5073355;28;20433;-68
2021/05/12 08:01:44;;;;;;;5.80;3.33;;;;;;;15.18;90.70;100256.63;5073248;28;20462;-69
2021/05/12 08:04:10;;;;;;;3.77;2.63;;;;;;;15.09;90.38;100261.41;5073195;28;20499;-69
2021/05/12 08:06:36;;;;;;;2.33;2.13;;;;;;;15.03;91.80;100262.78;5073181;28;20792;-69
2021/05/12 08:09:03;;;;;;;6.77;3.30;;;;;;;14.98;91.65;100263.00;5073202;28;20480;-69
2021/05/12 08:11:29;;;;;;;4.10;2.50;;;;;;;14.87;91.34;100268.88;5072950;28;20453;-69
2021/05/12 08:13:56;;;;;;;7.40;3.30;;;;;;;14.95;91.59;100269.13;5073055;28;20487;-70
2021/05/12 08:16:22;;;;;;;2.60;2.00;;;;;;;14.85;91.35;100271.13;5073078;28;20453;-71
2021/05/12 08:18:48;;;;;;;10.40;3.37;;;;;;;14.84;92.58;100272.28;5072797;28;20798;-69
2021/05/12 08:21:14;;;;;;;9.87;3.57;;;;;;;14.86;92.42;100272.72;5072946;28;20469;-69
2021/05/12 08:23:40;;;;;;;9.00;3.37;;;;;;;14.97;92.80;100264.13;5073027;28;20511;-70
2021/05/12 08:26:06;;;;;;;2.80;1.83;;;;;;;14.99;92.53;100257.19;5072670;28;20443;-72
2021/05/12 08:28:32;;;;;;;6.07;2.33;;;;;;;14.94;91.85;100264.81;5073098;28;20452;-70
2021/05/12 08:30:58;;;;;;;5.13;2.70;;;;;;;14.97;92.13;100269.59;5072942;28;20465;-72
2021/05/12 08:33:25;;;;;;;4.73;2.27;;;;;;;15.04;92.13;100275.25;5072769;28;20510;-71
2021/05/12 08:35:52;;;;;;;4.60;3.33;;;;;;;15.02;91.48;100275.63;5057448;28;20496;-69
2021/05/12 08:38:21;;;;;;;4.60;2.10;;;;;;;14.92;91.89;100267.88;5051631;28;20450;-69
2021/05/12 08:40:48;;;;;;;4.60;2.73;;;;;;;14.98;92.25;100268.44;5059026;28;20476;-70
2021/05/12 08:43:15;;;;;;;4.93;3.00;;;;;;;14.98;92.08;100276.63;5073657;28;20437;-70
2021/05/12 08:45:44;;;;;;;6.97;4.03;;;;;;;14.95;92.52;100271.84;5076940;28;20445;-70
2021/05/12 08:48:14;;;;;;;8.07;3.70;;;;;;;15.02;92.37;100283.00;5076862;28;20440;-72
2021/05/12 08:50:41;;;;;;;5.90;2.83;;;;;;;15.07;92.42;100277.31;5076338;28;20484;-72
2021/05/12 08:53:07;;;;;;;4.27;2.30;;;;;;;15.11;92.14;100280.97;5076406;28;20483;-71
2021/05/12 08:55:33;;;;;;;6.30;2.83;;;;;;;15.06;91.72;100273.81;5076753;28;20460;-71
2021/05/12 08:58:00;;;;;;;5.73;3.00;;;;;;;15.01;92.58;100286.88;5076647;28;20453;-71
2021/05/12 09:00:26;;;;;;;5.90;3.20;;;;;;;15.06;92.27;100278.47;5076527;28;20534;-72
2021/05/12 09:02:53;;;;;;;5.10;3.20;;;;;;;15.13;92.83;100289.59;5076491;28;20467;-71
2021/05/12 09:05:20;;;;;;;7.93;3.73;;;;;;;15.17;92.47;100290.50;5076262;28;20429;-72
2021/05/12 09:07:46;;;;;;;6.33;2.77;;;;;;;15.24;91.99;100288.03;5076464;28;20474;-72
2021/05/12 09:10:13;;;;;;;4.93;2.83;;;;;;;15.13;92.01;100292.31;5076397;28;20465;-72
2021/05/12 09:12:47;;;;;;;5.53;2.33;;;;;;;15.19;91.59;100290.19;5076435;28;20433;-71
2021/05/12 09:15:17;;;;;;;6.90;2.80;;;;;;;15.26;91.54;100282.22;5076329;28;20503;-71
2021/05/12 09:17:44;;;;;;;4.93;2.50;;;;;;;15.23;90.55;100294.63;5076371;28;20452;-71
2021/05/12 09:20:30;;;;;;;5.23;3.00;;;;;;;15.21;91.21;100304.28;5075928;28;20951;-71
2021/05/12 09:23:11;;;;;;;6.00;3.10;;;;;;;15.19;91.13;100310.09;5076249;28;20433;-71
2021/05/12 09:25:41;;;;;;;3.10;2.17;;;;;;;15.06;91.36;100303.03;5076207;28;20520;-72
2021/05/12 09:28:10;;;;;;;5.30;2.83;;;;;;;15.13;91.39;100295.84;5076207;28;20475;-72
2021/05/12 09:30:37;;;;;;;6.03;2.40;;;;;;;15.18;91.85;100297.56;5075992;28;20456;-71
2021/05/12 09:33:03;;;;;;;5.77;2.50;;;;;;;15.17;91.83;100295.97;5076019;28;20467;-72
2021/05/12 09:35:30;;;;;;;6.47;3.10;;;;;;;15.26;91.66;100288.47;5076023;28;20479;-71
2021/05/12 09:37:56;;;;;;;4.77;2.60;;;;;;;15.38;91.17;100285.78;5075974;28;20440;-72
2021/05/12 09:40:23;;;;;;;8.63;3.90;;;;;;;15.32;91.40;100287.13;5075840;28;20465;-72
2021/05/12 09:42:57;;;;;;;7.63;3.37;;;;;;;15.34;91.14;100295.78;5075834;28;20476;-71
2021/05/12 09:45:25;;;;;;;5.10;3.03;;;;;;;15.28;91.04;100288.94;5075870;28;20516;-71
2021/05/12 09:47:54;;;;;;;4.33;2.17;;;;;;;15.29;90.80;100287.00;5075849;28;20472;-71
2021/05/12 09:50:24;;;;;;;6.90;2.70;;;;;;;15.32;91.45;100278.16;5075506;28;20469;-71
2021/05/12 09:52:52;;;;;;;7.67;3.27;;;;;;;15.37;90.81;100275.19;5075620;28;20478;-71
2021/05/12 09:55:18;;;;;;;3.93;2.23;;;;;;;15.36;90.90;100274.41;5074833;28;20441;-72
2021/05/12 09:58:00;;;;;;;6.10;3.40;;;;;;;15.41;91.06;100275.31;5075307;28;20509;-73
2021/05/12 10:00:28;;;;;;;3.13;2.10;;;;;;;15.54;91.41;100276.91;5075397;28;20488;-71
2021/05/12 10:02:56;;;;;;;5.30;2.73;;;;;;;15.49;90.43;100280.63;5075536;28;20441;-71
2021/05/12 10:05:21;;;;;;;6.90;3.10;;;;;;;15.54;89.67;100285.91;5075480;28;20475;-70
2021/05/12 10:07:50;;;;;;;4.53;2.53;;;;;;;15.55;89.66;100273.84;5075154;28;20445;-70
2021/05/12 10:10:36;;;;;;;4.40;2.80;;;;;;;15.53;90.16;100269.84;5074969;28;20509;-70
2021/05/12 10:13:02;;;;;;;4.80;2.70;;;;;;;15.51;89.82;100272.91;5075293;28;20522;-71
2021/05/12 10:15:29;;;;;;;5.90;2.57;;;;;;;15.43;90.28;100270.31;5075384;28;20523;-71
2021/05/12 10:17:55;;;;;;;7.63;3.10;;;;;;;15.54;90.80;100266.78;5075326;28;20449;-71
2021/05/12 10:20:21;;;;;;;4.07;2.10;;;;;;;15.62;90.64;100262.31;5075178;28;20458;-72
2021/05/12 10:22:47;;;;;;;4.40;2.57;;;;;;;15.69;90.13;100259.06;5075223;28;20449;-72
2021/05/12 10:25:13;;;;;;;9.33;3.97;;;;;;;15.62;89.68;100257.66;5075143;28;20433;-72
2021/05/12 10:27:41;;;;;;;6.83;3.40;;;;;;;15.76;90.71;100254.63;5075088;28;20485;-72
2021/05/12 10:30:08;;;;;;;8.80;2.73;;;;;;;15.84;89.48;100267.31;5074655;28;20437;-72
2021/05/12 10:32:36;;;;;;;4.93;2.50;;;;;;;15.90;88.62;100278.84;5075029;28;20464;-72
2021/05/12 10:35:04;;;;;;;6.60;3.87;;;;;;;15.75;88.78;100277.59;5074886;28;20534;-72
2021/05/12 10:37:32;;;;;;;3.97;2.30;;;;;;;15.74;89.67;100270.53;5074927;28;20490;-73
2021/05/12 10:40:00;;;;;;;7.10;2.97;;;;;;;15.78;89.44;100270.66;5074800;28;20444;-73
2021/05/12 10:42:53;;;;;;;5.30;3.37;;;;;;;15.76;89.65;100262.00;5074849;28;20449;-72
2021/05/12 10:45:34;;;;;;;3.97;2.20;;;;;;;15.85;90.31;100260.75;5074830;28;20422;-72
2021/05/12 10:48:01;;;;;;;5.90;3.60;;;;;;;15.92;89.50;100271.06;5074702;28;20434;-72
2021/05/12 10:50:44;;;;;;;6.10;2.63;;;;;;;15.82;89.57;100277.81;5074195;28;20469;-73
2021/05/12 10:53:21;;;;;;;6.57;2.40;;;;;;;15.93;88.95;100280.06;5074386;28;20437;-72
2021/05/12 10:56:04;;;;;;;6.53;2.40;;;;;;;15.90;89.16;100284.28;5074492;28;20437;-72
2021/05/12 10:58:36;;;;;;;3.90;1.73;;;;;;;15.86;88.81;100289.66;5074307;28;20425;-72
2021/05/12 11:01:04;;;;;;;5.70;2.27;;;;;;;15.87;89.55;100282.25;5073863;28;20995;-72
2021/05/12 11:04:05;;;;;;;6.83;2.23;;;;;;;15.95;88.57;100270.41;5073792;28;20962;-72
2021/05/12 11:06:56;;;;;;;3.17;1.83;;;;;;;16.02;88.34;100280.72;5069339;28;20512;-72
2021/05/12 11:09:35;;;;;;;6.00;2.90;;;;;;;16.08;87.89;100282.09;5053766;28;20772;-72
2021/05/12 11:12:06;;;;;;;3.70;2.47;;;;;;;16.11;88.67;100290.41;5053699;28;20469;-72
2021/05/12 11:14:35;;;;;;;3.93;2.07;;;;;;;16.14;88.05;100297.88;5054109;28;20474;-72
2021/05/12 11:17:02;;;;;;;5.57;3.07;;;;;;;16.26;88.15;100297.06;5053728;28;20435;-72
2021/05/12 11:19:36;;;;;;;5.37;2.93;;;;;;;16.18;87.59;100299.94;5053939;28;20450;-72
2021/05/12 11:22:32;;;;;;;2.93;2.33;;;;;;;16.12;87.77;100302.13;5053816;28;20462;-72
2021/05/12 11:25:03;;;;;;;3.67;2.00;;;;;;;16.15;87.76;100307.69;5029992;28;20454;-72